• Join FlightAware (Why Join?)
  • Login
  • US Flag 
08:12PM EST


 

Airport Tracker/Info


-or-


 

Live Flight TrackerFlight Track Log ✈ N7VR ✈ 16-Jul-2013 ✈ KAZO - KGMU

Flight Track Log - Related Links

Times and Time Zones

All times are in EDT time to prevent confusion due to time zone crossing. See the N7VR flight status page for this flight to view local times or setup timezone preferences in your user account.

Time Position Orientation Groundspeed Altitude Reporting Facility
EDT Latitude Longitude Course Direction KTS MPH feet Rate Location/Type
11:43AM 42.3083 -85.5031 137° Southeast 177 204 3,800  Level Chicago Center
11:45AM 42.2714 -85.4561 137° Southeast 169 194 5,300 1,440 Climbing Chicago Center
11:46AM 42.2297 -85.4286 154° Southeast 168 193 6,800 1,380 Climbing Chicago Center
11:47AM 42.1864 -85.4139 166° South 165 190 8,200 1,260 Climbing Chicago Center
11:48AM 42.1422 -85.4003 167° South 162 186 9,500 1,200 Climbing Chicago Center
11:49AM 42.0969 -85.3828 164° South 165 190 10,800 1,140 Climbing Chicago Center
11:50AM 42.0514 -85.3608 160° South 169 194 11,900 1,080 Climbing Chicago Center
11:51AM 42.0036 -85.3392 161° South 175 201 13,100 1,020 Climbing Chicago Center
11:52AM 41.9439 -85.3164 164° South 182 209 14,100 960 Climbing Chicago Center
11:53AM 41.8914 -85.2908 160° South 194 223 15,100 900 Climbing Chicago Center
11:54AM 41.8383 -85.2697 163° South 197 227 16,000 720 Climbing Chicago Center
11:55AM 41.7844 -85.2472 163° South 202 232 16,700 720 Climbing Chicago Center
11:56AM 41.7286 -85.2269 165° South 207 238 17,500 480 Climbing Chicago Center
11:57AM 41.6728 -85.2078 166° South 209 241 17,800 540 Climbing Chicago Center
11:58AM 41.6078 -85.1786 161° South 206 237 18,700 720 Climbing Chicago Center
11:59AM 41.5528 -85.1544 162° South 209 241 19,300 480 Climbing Chicago Center
12:00PM 41.4969 -85.1275 160° South 214 246 19,700 360 Climbing Chicago Center
12:01PM 41.4408 -85.0989 159° South 215 247 20,100 360 Climbing Chicago Center
12:02PM 41.3825 -85.0764 164° South 218 251 20,500 360 Climbing Chicago Center
12:03PM 41.3258 -85.0486 160° South 218 251 20,900 240 Climbing Chicago Center
12:04PM 41.2567 -85.0169 161° South 219 252 21,000  Climbing Chicago Center
12:05PM 41.1953 -84.9894 161° South 230 265 21,000 -60 Level Chicago Center
12:06PM 41.1364 -84.9642 162° South 231 266 20,900  Descending Chicago Center
12:07PM 41.0742 -84.9333 160° South 236 272 21,000  Climbing Chicago Center
12:08PM 41.0119 -84.9061 162° South 236 272 21,000  Level Chicago Center
12:09PM 40.9378 -84.8714 161° South 236 272 21,000  Level Chicago Center
12:10PM 40.8739 -84.8414 160° South 242 278 21,000  Level Chicago Center
12:11PM 40.8342 -84.8261 164° South 242 278 21,000  Level Indianapolis Center
12:12PM 40.7808 -84.8044 163° South 234 269 21,000  Level Indianapolis Center
12:13PM 40.7111 -84.7736 161° South 234 269 21,000  Level Indianapolis Center
12:14PM 40.6469 -84.7464 162° South 240 276 21,000  Level Indianapolis Center
12:15PM 40.5847 -84.7219 163° South 238 274 21,000  Level Indianapolis Center
12:16PM 40.5225 -84.6964 163° South 236 272 21,000  Level Indianapolis Center
12:17PM 40.4603 -84.6697 162° South 235 270 21,000  Level Indianapolis Center
12:18PM 40.3892 -84.6433 164° South 237 273 21,000  Level Indianapolis Center
12:19PM 40.3258 -84.6156 162° South 238 274 21,000  Level Indianapolis Center
12:20PM 40.2586 -84.5856 161° South 238 274 21,000  Level Indianapolis Center
12:21PM 40.1997 -84.5583 161° South 239 275 21,000  Level Indianapolis Center
12:22PM 40.1278 -84.5222 159° South 236 272 21,000  Level Indianapolis Center
12:23PM 40.0739 -84.4978 161° South 235 270 21,000  Level Indianapolis Center
12:24PM 40.0025 -84.4669 162° South 238 274 21,000  Level Indianapolis Center
12:25PM 39.9386 -84.4394 162° South 241 277 21,000  Level Indianapolis Center
12:26PM 39.8756 -84.4119 161° South 238 274 21,000  Level Indianapolis Center
12:27PM 39.8122 -84.3894 165° South 235 270 21,000  Level Indianapolis Center
12:28PM 39.7506 -84.3614 161° South 234 269 21,000  Level Indianapolis Center
12:29PM 39.6869 -84.3361 163° South 235 270 21,100  Climbing Indianapolis Center
12:30PM 39.6242 -84.3067 160° South 235 270 21,000 -60 Descending Indianapolis Center
12:31PM 39.5517 -84.2775 163° South 235 270 21,000  Level Indianapolis Center
12:32PM 39.4875 -84.2519 163° South 238 274 21,000  Level Indianapolis Center
12:33PM 39.4250 -84.2281 164° South 235 270 21,000  Level Indianapolis Center
12:35PM 39.3625 -84.2019 162° South 234 269 21,000  Level Indianapolis Center
12:36PM 39.2986 -84.1789 164° South 235 270 21,000  Level Indianapolis Center
12:37PM 39.2364 -84.1553 164° South 233 268 21,000  Level Indianapolis Center
12:38PM 39.1750 -84.1294 162° South 231 266 21,000  Level Indianapolis Center
12:39PM 39.1125 -84.1044 163° South 233 268 21,000  Level Indianapolis Center
12:40PM 39.0506 -84.0778 162° South 233 268 21,000  Level Indianapolis Center
12:41PM 38.9897 -84.0558 164° South 227 261 21,100  Climbing Indianapolis Center
12:42PM 38.9169 -84.0267 163° South 230 265 21,000 -60 Descending Indianapolis Center
12:43PM 38.8561 -84.0022 163° South 228 262 21,000  Level Indianapolis Center
12:44PM 38.7953 -83.9739 160° South 230 265 21,000  Level Indianapolis Center
12:45PM 38.7333 -83.9456 160° South 230 265 21,100  Climbing Indianapolis Center
12:46PM 38.6719 -83.9156 159° South 232 267 21,100  Level Indianapolis Center
12:47PM 38.6044 -83.8803 158° South 234 269 21,100 -60 Level Indianapolis Center
12:48PM 38.5422 -83.8503 159° South 237 273 21,000 -60 Descending Indianapolis Center
12:49PM 38.4797 -83.8236 162° South 237 273 21,000  Level Indianapolis Center
12:50PM 38.4167 -83.7956 161° South 238 274 21,000  Level Indianapolis Center
12:51PM 38.3539 -83.7675 161° South 237 273 21,000  Level Indianapolis Center
12:52PM 38.2914 -83.7392 160° South 238 274 21,000  Level Indianapolis Center
12:53PM 38.2175 -83.7075 161° South 240 276 21,000  Level Indianapolis Center
12:54PM 38.1547 -83.6794 161° South 239 275 21,100  Climbing Indianapolis Center
12:55PM 38.0928 -83.6514 160° South 237 273 21,100 -60 Level Indianapolis Center
12:56PM 38.0300 -83.6228 160° South 238 274 21,000 -60 Descending Indianapolis Center
12:57PM 37.9672 -83.5969 162° South 238 274 21,000 -60 Level Indianapolis Center
12:58PM 37.9039 -83.5678 160° South 240 276 20,900  Descending Indianapolis Center
12:59PM 37.8425 -83.5403 161° South 236 272 21,000  Climbing Indianapolis Center
01:00PM 37.7692 -83.5103 162° South 237 273 21,000  Level Indianapolis Center
01:01PM 37.7067 -83.4819 160° South 237 273 21,000  Level Indianapolis Center
01:02PM 37.6436 -83.4553 161° South 238 274 21,000  Level Indianapolis Center
01:03PM 37.5808 -83.4292 162° South 237 273 21,000  Level Indianapolis Center
01:04PM 37.5167 -83.4044 163° South 239 275 21,000  Level Indianapolis Center
01:05PM 37.4433 -83.3756 163° South 238 274 21,000  Level Indianapolis Center
01:06PM 37.3803 -83.3497 162° South 238 274 21,000  Level Indianapolis Center
01:07PM 37.3169 -83.3219 161° South 239 275 21,000  Level Indianapolis Center
01:08PM 37.2542 -83.2939 160° South 240 276 21,000  Level Indianapolis Center
01:09PM 37.1900 -83.2675 162° South 241 277 21,000  Level Indianapolis Center
01:11PM 37.1253 -83.2433 163° South 242 278 21,000  Level Indianapolis Center
01:12PM 37.0511 -83.2142 163° South 240 276 21,100  Climbing Indianapolis Center
01:13PM 36.9872 -83.1886 162° South 241 277 21,000 -60 Descending Indianapolis Center
01:14PM 36.9233 -83.1622 162° South 242 278 21,000  Level Indianapolis Center
01:15PM 36.8594 -83.1369 162° South 243 280 21,000  Level Indianapolis Center
01:16PM 36.7961 -83.1103 161° South 241 277 21,000  Level Indianapolis Center
01:17PM 36.7203 -83.0828 164° South 243 280 21,000 -60 Level Indianapolis Center
01:18PM 36.6569 -83.0581 163° South 240 276 20,900  Descending Indianapolis Center
01:19PM 36.5931 -83.0339 163° South 240 276 21,000  Climbing Indianapolis Center
01:20PM 36.5300 -83.0092 163° South 238 274 21,000  Level Indianapolis Center
01:21PM 36.4667 -82.9850 163° South 238 274 21,000  Level Indianapolis Center
01:22PM 36.3928 -82.9567 163° South 238 274 21,000  Level Indianapolis Center
01:22PM 36.3578 -82.9456 166° South 239 275 21,000  Level Atlanta Center
01:23PM 36.2931 -82.9208 163° South 239 275 21,000  Level Atlanta Center
01:24PM 36.2303 -82.8983 164° South 239 275 21,000  Level Atlanta Center
01:25PM 36.1675 -82.8736 162° South 239 275 21,000  Level Atlanta Center
01:26PM 36.1047 -82.8489 162° South 239 275 21,000 -540 Level Atlanta Center
01:27PM 36.0356 -82.8319 169° South 245 282 20,000 -1,140 Descending Atlanta Center
01:28PM 35.9606 -82.8253 176° South 261 300 18,800 -960 Descending Atlanta Center
01:29PM 35.8811 -82.8164 175° South 279 321 18,100 -900 Descending Atlanta Center
01:30PM 35.8078 -82.7917 165° South 279 321 17,000 -1,260 Descending Atlanta Center
01:31PM 35.7367 -82.7569 158° South 272 313 15,600 -1,440 Descending Atlanta Center
01:32PM 35.6653 -82.7250 160° South 278 320 14,200 -1,380 Descending Atlanta Center
01:33PM 35.5939 -82.6878 157° South 278 320 12,900 -1,320 Descending Atlanta Center
01:34PM 35.5247 -82.6583 161° South 273 314 11,600 -1,260 Descending Atlanta Center
01:35PM 35.4575 -82.6186 154° Southeast 273 314 10,400 -1,380 Descending Atlanta Center
01:36PM 35.3906 -82.5942 163° South 267 307 8,900 -1,500 Descending Atlanta Center
01:37PM 35.3253 -82.5547 154° Southeast 260 299 7,400 -900 Descending Atlanta Center
01:38PM 35.2583 -82.5228 159° South 253 291 7,100 -300 Descending Atlanta Center
01:40PM 35.1959 -82.4833 180° South  Level FlightAware Approximate
01:47PM 34.8479 -82.3500 180° South  Level Estimated
01:48PM 34.8479 -82.3500 180° South  Level Estimated
01:49PM 34.8479 -82.3500 180° South  Level Estimated
01:50PM 34.8479 -82.3500 180° South  Level Estimated
01:51PM 34.8479 -82.3500 180° South  Level Estimated
01:52PM 34.8479 -82.3500 180° South  Level Estimated
01:53PM 34.8479 -82.3500 180° South  Level Estimated